Time;durP1;ratioP1;P1;durP2;ratioP2;P2;SDS_P1;SDS_P2;PMS_P1;PMS_P2;Temp;Humidity;BMP_temperature;BMP_pressure;BME280_temperature;BME280_humidity;BME280_pressure;Samples;Min_cycle;Max_cycle;Signal;HPM_P1;HPM_P2
2023/01/31 00:01:29;;;;;;;15.77;3.95;;;;;;;6.90;61.19;102440.19;5082886;28;20040;-60
2023/01/31 00:03:59;;;;;;;12.50;3.60;;;;;;;6.85;61.17;102454.84;5083956;28;20055;-61
2023/01/31 00:06:28;;;;;;;12.50;3.28;;;;;;;6.89;61.36;102454.53;5075974;28;20045;-60
2023/01/31 00:08:57;;;;;;;14.50;4.13;;;;;;;6.88;61.49;102447.50;5093817;28;20131;-61
2023/01/31 00:11:27;;;;;;;13.20;3.40;;;;;;;6.88;61.57;102448.34;5082968;28;20509;-61
2023/01/31 00:13:55;;;;;;;14.75;3.63;;;;;;;6.88;61.56;102456.38;5070309;28;20052;-61
2023/01/31 00:16:25;;;;;;;16.52;5.07;;;;;;;6.84;61.62;102450.50;5074776;28;20045;-61
2023/01/31 00:18:53;;;;;;;18.23;4.80;;;;;;;6.86;61.33;102463.69;5085727;28;20135;-61
2023/01/31 00:21:22;;;;;;;18.27;4.15;;;;;;;6.81;61.52;102452.66;5082444;28;20052;-61
2023/01/31 00:23:51;;;;;;;17.20;5.30;;;;;;;6.83;60.80;102456.84;5082095;28;20104;-61
2023/01/31 00:26:20;;;;;;;13.70;3.45;;;;;;;6.82;61.55;102460.50;5080340;28;20111;-61
2023/01/31 00:28:49;;;;;;;16.85;4.50;;;;;;;6.81;61.73;102464.19;5077752;28;20055;-61
2023/01/31 00:31:19;;;;;;;17.80;4.50;;;;;;;6.80;61.12;102464.34;5074314;28;20119;-61
2023/01/31 00:33:49;;;;;;;15.23;4.30;;;;;;;6.79;61.32;102458.16;5084006;28;20444;-61
2023/01/31 00:36:19;;;;;;;15.50;5.22;;;;;;;6.76;61.42;102449.63;5078551;28;20211;-60
2023/01/31 00:38:48;;;;;;;13.35;3.60;;;;;;;6.79;61.32;102451.97;5080384;28;20099;-61
2023/01/31 00:41:16;;;;;;;15.10;4.57;;;;;;;6.77;61.17;102454.78;5069263;28;20053;-60
2023/01/31 00:43:44;;;;;;;14.77;4.05;;;;;;;6.78;61.17;102453.81;5083124;28;20064;-60
2023/01/31 00:46:11;;;;;;;15.55;4.00;;;;;;;6.78;61.54;102456.47;5075632;28;20080;-61
2023/01/31 00:48:39;;;;;;;12.82;4.65;;;;;;;6.77;61.39;102451.28;5078390;28;20174;-61
2023/01/31 00:51:09;;;;;;;13.77;3.95;;;;;;;6.77;61.59;102461.97;5078682;28;20041;-61
2023/01/31 00:53:36;;;;;;;14.75;3.67;;;;;;;6.70;60.58;102455.59;5084469;28;20509;-60
2023/01/31 00:56:07;;;;;;;18.58;4.25;;;;;;;6.75;61.20;102454.13;5079967;28;20048;-60
2023/01/31 00:58:35;;;;;;;18.92;4.55;;;;;;;6.74;61.28;102449.78;5069510;28;20049;-61
2023/01/31 01:01:07;;;;;;;12.30;3.92;;;;;;;6.70;61.74;102453.75;5080083;28;20080;-60
2023/01/31 01:03:36;;;;;;;13.52;3.95;;;;;;;6.74;61.65;102443.59;5082606;28;20049;-60
2023/01/31 01:06:05;;;;;;;13.30;3.80;;;;;;;6.71;61.74;102442.06;5085054;28;20304;-61
2023/01/31 01:08:36;;;;;;;12.52;3.83;;;;;;;6.73;61.78;102442.75;5079500;28;20508;-60
2023/01/31 01:11:07;;;;;;;14.88;4.20;;;;;;;6.71;61.58;102439.41;5083582;28;20068;-60
2023/01/31 01:13:35;;;;;;;18.77;4.72;;;;;;;6.70;61.86;102439.56;5066047;28;20084;-60
2023/01/31 01:16:05;;;;;;;17.70;4.40;;;;;;;6.70;61.54;102440.38;5075901;28;20128;-60
2023/01/31 01:18:34;;;;;;;15.27;3.85;;;;;;;6.71;61.76;102434.06;5073472;28;20708;-60
2023/01/31 01:21:07;;;;;;;14.23;3.70;;;;;;;6.71;61.44;102434.06;5077040;28;20143;-61
2023/01/31 01:23:37;;;;;;;15.63;4.40;;;;;;;6.69;61.70;102429.88;5077247;28;20076;-60
2023/01/31 01:26:05;;;;;;;16.30;4.88;;;;;;;6.69;61.62;102424.53;5083089;28;20074;-61
2023/01/31 01:28:34;;;;;;;14.63;4.20;;;;;;;6.68;61.26;102414.81;5081501;28;20056;-61
2023/01/31 01:31:06;;;;;;;12.50;4.75;;;;;;;6.67;61.84;102408.66;5080839;28;20074;-60
2023/01/31 01:33:34;;;;;;;13.02;4.07;;;;;;;6.67;61.37;102408.66;5077257;28;20108;-60
2023/01/31 01:36:03;;;;;;;16.58;5.15;;;;;;;6.67;61.48;102405.97;5067776;28;20056;-61
2023/01/31 01:38:33;;;;;;;15.73;4.72;;;;;;;6.65;61.42;102410.63;5072105;28;20071;-60
2023/01/31 01:41:03;;;;;;;14.82;4.45;;;;;;;6.65;61.44;102401.78;5076966;28;20098;-60
2023/01/31 01:43:43;;;;;;;17.40;4.10;;;;;;;6.66;61.85;102404.28;5073526;28;20108;-60
2023/01/31 01:46:13;;;;;;;11.50;3.42;;;;;;;6.64;61.73;102405.44;5071544;28;20100;-60
2023/01/31 01:48:44;;;;;;;21.55;4.32;;;;;;;6.62;61.94;102397.59;5080462;28;20128;-60
2023/01/31 01:51:14;;;;;;;13.75;3.58;;;;;;;6.59;62.00;102391.72;5074804;28;20083;-60
2023/01/31 01:53:43;;;;;;;15.27;4.38;;;;;;;6.62;62.12;102402.94;5075213;28;20053;-60
2023/01/31 01:56:17;;;;;;;15.93;4.93;;;;;;;6.59;62.00;102389.06;5069962;28;20084;-61
2023/01/31 01:58:51;;;;;;;16.08;4.13;;;;;;;6.61;61.74;102400.44;5071369;28;20056;-60
2023/01/31 02:01:19;;;;;;;16.15;4.57;;;;;;;6.59;61.89;102391.72;5079072;28;20120;-60
2023/01/31 02:03:48;;;;;;;16.98;5.38;;;;;;;6.56;61.37;102381.38;5077012;28;20182;-60
2023/01/31 02:06:16;;;;;;;18.70;4.85;;;;;;;6.60;61.82;102398.75;5072721;28;20052;-60
2023/01/31 02:08:45;;;;;;;17.67;5.28;;;;;;;6.59;61.63;102392.56;5078124;28;20061;-60
2023/01/31 02:11:21;;;;;;;13.52;4.57;;;;;;;6.60;61.84;102401.41;5082764;28;20088;-61
2023/01/31 02:13:52;;;;;;;18.30;4.45;;;;;;;6.60;61.54;102409.44;5083010;28;20049;-60
2023/01/31 02:16:20;;;;;;;14.13;4.60;;;;;;;6.59;61.86;102413.09;5077642;28;20116;-61
2023/01/31 02:18:48;;;;;;;10.65;4.10;;;;;;;6.55;61.92;102407.22;5084536;28;20097;-60
2023/01/31 02:21:53;;;;;;;13.93;4.20;;;;;;;6.56;62.02;102408.06;5082884;28;20051;-60
2023/01/31 02:24:46;;;;;;;19.17;5.85;;;;;;;6.54;62.07;102408.22;5072838;28;20318;-60
2023/01/31 02:27:29;;;;;;;18.60;4.82;;;;;;;6.52;62.15;102408.38;5075616;28;20060;-60
2023/01/31 02:30:23;;;;;;;16.55;5.75;;;;;;;6.53;61.89;102419.91;5074934;28;20151;-60
2023/01/31 02:33:03;;;;;;;16.52;4.85;;;;;;;6.51;61.85;102417.38;5071149;28;20048;-60
2023/01/31 02:35:49;;;;;;;18.55;4.57;;;;;;;6.51;62.29;102417.38;5078946;28;20056;-61
2023/01/31 02:38:39;;;;;;;14.77;4.50;;;;;;;6.50;61.75;102421.06;5069481;28;20080;-60
2023/01/31 02:41:16;;;;;;;18.77;5.90;;;;;;;6.50;61.75;102429.06;5079485;28;20139;-60
2023/01/31 02:46:45;;;;;;;15.43;5.03;;;;;;;6.49;62.09;102415.88;5077211;28;20049;-61
2023/01/31 02:49:33;;;;;;;18.00;4.93;;;;;;;6.47;62.21;102412.53;5081960;28;20083;-61
2023/01/31 02:52:17;;;;;;;18.92;4.85;;;;;;;6.47;61.96;102417.88;5073087;28;20072;-61
2023/01/31 02:57:47;;;;;;;19.50;5.43;;;;;;;6.46;62.08;102416.19;5064971;28;20052;-61
2023/01/31 03:00:15;;;;;;;16.05;5.18;;;;;;;6.47;62.37;102415.19;5075277;28;20063;-61
2023/01/31 03:02:43;;;;;;;17.15;5.65;;;;;;;6.44;62.23;102412.84;5079454;28;20132;-61
2023/01/31 03:05:15;;;;;;;15.02;4.45;;;;;;;6.45;62.29;102418.03;5077844;28;20049;-60
2023/01/31 03:07:47;;;;;;;16.17;5.13;;;;;;;6.43;62.14;102412.00;5076874;28;20064;-60
2023/01/31 03:10:58;;;;;;;18.58;5.43;;;;;;;6.43;62.20;102405.81;5074564;28;20104;-60
2023/01/31 03:13:41;;;;;;;20.77;5.35;;;;;;;6.43;62.27;102408.50;5077374;28;20063;-60
2023/01/31 03:19:12;;;;;;;12.45;4.93;;;;;;;6.41;62.37;102389.94;5071337;28;20056;-60
2023/01/31 03:21:46;;;;;;;16.42;5.60;;;;;;;6.40;62.30;102401.63;5071279;28;20523;-60
2023/01/31 03:24:16;;;;;;;22.10;4.97;;;;;;;6.39;62.58;102389.28;5067282;28;20059;-60
2023/01/31 03:26:46;;;;;;;19.73;5.38;;;;;;;6.38;62.43;102389.44;5078067;28;20049;-60
2023/01/31 03:29:16;;;;;;;14.98;4.82;;;;;;;6.37;62.68;102390.41;5074494;28;20037;-60
2023/01/31 03:31:49;;;;;;;18.15;6.32;;;;;;;6.39;62.35;102393.78;5075435;28;20052;-60
2023/01/31 03:34:17;;;;;;;17.00;6.10;;;;;;;6.37;62.68;102385.91;5072462;28;20060;-61
2023/01/31 03:36:53;;;;;;;19.10;5.47;;;;;;;6.38;62.38;102390.25;5071275;28;20068;-60
2023/01/31 03:39:32;;;;;;;20.45;6.07;;;;;;;6.38;62.51;102389.44;5075341;28;20047;-61
2023/01/31 03:42:06;;;;;;;22.33;6.53;;;;;;;6.37;62.41;102388.59;5085605;28;20079;-61
2023/01/31 03:44:42;;;;;;;19.15;6.45;;;;;;;6.36;62.72;102372.72;5080265;28;20048;-61
2023/01/31 03:47:15;;;;;;;15.68;5.35;;;;;;;6.36;62.37;102384.25;5080516;28;20063;-61
2023/01/31 03:49:45;;;;;;;17.67;6.40;;;;;;;6.34;62.44;102372.88;5073850;28;20108;-61
2023/01/31 03:52:22;;;;;;;22.67;5.93;;;;;;;6.36;62.52;102376.22;5066045;28;20052;-60
2023/01/31 03:54:54;;;;;;;20.23;7.38;;;;;;;6.33;62.88;102371.19;5075901;28;20048;-61
2023/01/31 03:57:25;;;;;;;16.38;5.75;;;;;;;6.34;62.41;102364.03;5080265;28;20049;-61
2023/01/31 03:59:57;;;;;;;18.23;5.70;;;;;;;6.34;62.94;102367.53;5080013;28;20059;-61
2023/01/31 04:02:30;;;;;;;14.90;5.13;;;;;;;6.32;62.93;102366.84;5082715;28;20072;-60
2023/01/31 04:05:06;;;;;;;15.73;6.47;;;;;;;6.34;62.96;102361.38;5084962;28;20070;-60
2023/01/31 04:07:36;;;;;;;19.52;6.22;;;;;;;6.33;62.67;102365.88;5078329;28;20052;-60
2023/01/31 04:10:10;;;;;;;17.13;5.32;;;;;;;6.32;62.86;102369.53;5078178;28;20040;-60
2023/01/31 04:12:39;;;;;;;17.73;6.00;;;;;;;6.28;62.97;102357.47;5085233;28;20051;-60
2023/01/31 04:15:08;;;;;;;27.08;6.40;;;;;;;6.34;63.07;102372.03;5076829;28;20510;-61
2023/01/31 04:17:36;;;;;;;20.95;5.68;;;;;;;6.35;63.12;102363.88;5093091;28;20066;-61
2023/01/31 04:20:05;;;;;;;23.48;6.38;;;;;;;6.33;62.88;102362.34;5075358;28;20076;-61
2023/01/31 04:22:34;;;;;;;20.23;5.88;;;;;;;6.31;63.15;102359.84;5082117;28;20072;-60
2023/01/31 04:25:02;;;;;;;18.80;5.85;;;;;;;6.34;63.12;102369.38;5066102;28;20091;-60
2023/01/31 04:27:30;;;;;;;22.15;6.88;;;;;;;6.32;62.88;102364.19;5071799;28;20108;-61
2023/01/31 04:29:58;;;;;;;18.80;6.28;;;;;;;6.33;62.86;102365.88;5063702;28;20377;-60
2023/01/31 04:32:26;;;;;;;19.50;5.55;;;;;;;6.33;63.29;102371.19;5073813;28;20055;-61
2023/01/31 04:34:54;;;;;;;15.90;5.95;;;;;;;6.32;63.06;102358.84;5076522;28;20053;-61
2023/01/31 04:37:21;;;;;;;15.95;6.53;;;;;;;6.32;62.87;102353.50;5081174;28;20044;-61
2023/01/31 04:39:50;;;;;;;22.75;6.70;;;;;;;6.33;63.08;102359.69;5074896;28;20059;-61
2023/01/31 04:42:18;;;;;;;16.17;7.03;;;;;;;6.33;62.93;102351.69;5080325;28;20075;-61
2023/01/31 04:44:46;;;;;;;20.73;5.85;;;;;;;6.31;63.33;102351.00;5067201;28;20052;-61
2023/01/31 04:47:14;;;;;;;18.45;6.20;;;;;;;6.29;63.19;102352.97;5075024;28;20049;-60
2023/01/31 04:49:42;;;;;;;16.00;6.28;;;;;;;6.31;62.83;102359.00;5079573;28;20506;-61
2023/01/31 04:52:10;;;;;;;19.70;6.03;;;;;;;6.29;63.09;102364.50;5091831;28;20044;-60
2023/01/31 04:54:38;;;;;;;17.30;6.45;;;;;;;6.28;63.12;102365.50;5078158;28;20048;-61
2023/01/31 04:57:07;;;;;;;17.80;5.45;;;;;;;6.27;63.43;102350.47;5081139;28;20046;-61
2023/01/31 04:59:35;;;;;;;18.63;5.82;;;;;;;6.28;63.32;102348.63;5078195;28;20526;-61
2023/01/31 05:02:03;;;;;;;18.65;6.00;;;;;;;6.27;63.41;102352.31;5068083;28;20076;-60
2023/01/31 05:04:31;;;;;;;14.10;5.95;;;;;;;6.26;63.35;102337.28;5080376;28;20105;-61
2023/01/31 05:06:59;;;;;;;18.20;6.68;;;;;;;6.25;63.36;102327.59;5079072;28;20083;-60
2023/01/31 05:09:27;;;;;;;17.38;5.13;;;;;;;6.24;63.33;102325.91;5078260;28;20083;-60
2023/01/31 05:11:54;;;;;;;15.55;5.85;;;;;;;6.24;63.27;102323.25;5071765;28;20056;-61
2023/01/31 05:14:24;;;;;;;15.90;5.80;;;;;;;6.23;63.70;102333.09;5077559;28;20124;-61
2023/01/31 05:16:51;;;;;;;17.45;5.55;;;;;;;6.24;63.16;102310.75;5073404;28;20125;-61
2023/01/31 05:19:19;;;;;;;22.92;6.90;;;;;;;6.23;63.52;102303.72;5082299;28;20051;-61
2023/01/31 05:21:57;;;;;;;17.20;5.72;;;;;;;6.22;63.55;102307.38;5086691;28;20083;-60
2023/01/31 05:24:27;;;;;;;11.85;6.15;;;;;;;6.19;63.25;102299.69;5079209;28;20051;-61
2023/01/31 05:26:57;;;;;;;22.00;6.38;;;;;;;6.23;63.41;102302.88;5073098;28;20071;-61
2023/01/31 05:29:27;;;;;;;20.20;6.50;;;;;;;6.14;63.15;102281.47;5070624;28;20054;-61
2023/01/31 05:31:57;;;;;;;21.55;7.07;;;;;;;6.20;63.59;102301.38;5073550;28;20095;-60
2023/01/31 05:34:27;;;;;;;17.10;7.47;;;;;;;6.20;63.35;102296.03;5071622;28;20048;-61
2023/01/31 05:36:55;;;;;;;18.35;6.53;;;;;;;6.20;63.29;102298.69;5079951;28;20047;-60
2023/01/31 05:39:23;;;;;;;15.43;5.65;;;;;;;6.20;63.23;102296.03;5068333;28;20075;-60
2023/01/31 05:41:51;;;;;;;17.30;6.57;;;;;;;6.17;63.68;102296.34;5082160;28;20049;-60
2023/01/31 05:44:19;;;;;;;22.75;5.65;;;;;;;6.20;63.55;102304.88;5073450;28;20049;-61
2023/01/31 05:46:48;;;;;;;13.00;5.00;;;;;;;6.19;63.44;102287.19;5078634;28;20092;-61
2023/01/31 05:49:16;;;;;;;19.02;6.90;;;;;;;6.20;62.96;102290.69;5079645;28;20059;-61
2023/01/31 05:51:44;;;;;;;14.75;6.22;;;;;;;6.21;63.38;102284.34;5075222;28;20116;-61
2023/01/31 05:54:12;;;;;;;14.68;5.50;;;;;;;6.21;63.54;102289.69;5078631;28;20085;-64
2023/01/31 05:56:40;;;;;;;20.13;5.97;;;;;;;6.21;63.26;102287.03;5069056;28;20059;-61
2023/01/31 05:59:08;;;;;;;17.17;6.18;;;;;;;6.19;63.61;102297.88;5083424;28;20425;-61
2023/01/31 06:01:35;;;;;;;17.80;5.80;;;;;;;6.21;63.24;102281.69;5078475;28;20056;-61
2023/01/31 06:04:05;;;;;;;16.20;6.25;;;;;;;6.29;63.33;102273.72;5081438;28;20388;-61
2023/01/31 06:06:32;;;;;;;39.90;6.63;;;;;;;6.42;62.66;102275.97;5075210;28;20079;-61
2023/01/31 06:09:00;;;;;;;18.42;5.53;;;;;;;6.53;62.53;102276.50;5092184;28;20053;-59
2023/01/31 06:11:28;;;;;;;16.15;5.63;;;;;;;6.70;61.95;102277.41;5073843;28;20095;-62
2023/01/31 06:13:57;;;;;;;19.05;5.50;;;;;;;6.87;61.28;102283.66;5084152;28;20045;-60
2023/01/31 06:16:25;;;;;;;21.27;5.93;;;;;;;6.87;61.31;102282.81;5072732;28;20156;-60
2023/01/31 06:18:54;;;;;;;18.35;6.93;;;;;;;6.86;61.16;102287.31;5083257;28;20040;-60
2023/01/31 06:21:23;;;;;;;20.23;5.88;;;;;;;6.83;61.12;102293.00;5076375;28;20126;-59
2023/01/31 06:23:51;;;;;;;15.25;5.40;;;;;;;6.77;61.63;102293.66;5085601;28;20083;-61
2023/01/31 06:26:19;;;;;;;13.30;5.22;;;;;;;6.72;62.37;102279.94;5074030;28;20055;-60
2023/01/31 06:28:46;;;;;;;19.35;6.03;;;;;;;6.67;61.93;102283.09;5084410;28;20163;-61
2023/01/31 06:31:14;;;;;;;16.05;5.20;;;;;;;6.55;62.98;102287.03;5073673;28;20056;-60
2023/01/31 06:33:42;;;;;;;21.45;5.97;;;;;;;6.55;62.52;102291.53;5064400;28;20049;-61
2023/01/31 06:36:14;;;;;;;18.98;6.28;;;;;;;6.53;62.79;102294.38;5066686;28;20045;-62
2023/01/31 06:38:50;;;;;;;18.60;6.15;;;;;;;6.51;62.55;102285.69;5079641;28;20044;-61
2023/01/31 06:41:18;;;;;;;18.88;5.57;;;;;;;6.47;62.93;102287.84;5071820;28;20387;-61
2023/01/31 06:43:46;;;;;;;16.50;6.63;;;;;;;6.44;63.01;102282.81;5081413;28;20116;-61
2023/01/31 06:46:14;;;;;;;16.33;5.88;;;;;;;6.43;63.17;102281.16;5081969;28;20083;-61
2023/01/31 06:48:42;;;;;;;20.98;6.00;;;;;;;6.42;63.33;102290.16;4724720;28;9999745;-62
2023/01/31 06:51:10;;;;;;;16.92;6.68;;;;;;;6.40;63.12;102277.97;5081879;28;20052;-62
2023/01/31 06:53:38;;;;;;;14.52;5.63;;;;;;;6.40;63.35;102284.13;5079221;28;20052;-62
2023/01/31 06:56:08;;;;;;;16.20;5.70;;;;;;;6.39;63.63;102279.78;5072931;28;20054;-65
2023/01/31 06:58:36;;;;;;;15.02;4.97;;;;;;;6.37;63.50;102279.09;5078422;28;20080;-61
2023/01/31 07:01:05;;;;;;;14.90;5.32;;;;;;;6.37;63.02;102272.94;5074342;28;20112;-61
2023/01/31 07:03:33;;;;;;;21.13;6.18;;;;;;;6.36;63.32;102269.44;5068801;28;20068;-60
2023/01/31 07:06:00;;;;;;;17.35;5.25;;;;;;;6.33;63.49;102269.75;5075228;28;20110;-60
2023/01/31 07:08:28;;;;;;;15.35;5.15;;;;;;;6.34;63.89;102265.25;5078882;28;20068;-60
2023/01/31 07:10:56;;;;;;;15.13;5.53;;;;;;;6.32;63.54;102267.22;5061597;28;20056;-61
2023/01/31 07:13:26;;;;;;;18.45;5.35;;;;;;;6.31;63.51;102271.72;5078847;28;20118;-65
2023/01/31 07:15:53;;;;;;;17.45;6.05;;;;;;;6.27;63.96;102262.38;5066475;28;20076;-60
2023/01/31 07:18:21;;;;;;;14.93;4.88;;;;;;;6.28;64.14;102261.38;5071755;28;20040;-60
2023/01/31 07:20:50;;;;;;;20.67;5.93;;;;;;;6.28;64.08;102269.38;5068205;28;20049;-60
2023/01/31 07:23:17;;;;;;;20.85;5.57;;;;;;;6.28;64.01;102263.19;5077955;28;20045;-60
2023/01/31 07:25:45;;;;;;;11.98;5.35;;;;;;;6.30;63.62;102269.22;5086018;28;20108;-60
2023/01/31 07:28:13;;;;;;;17.77;5.80;;;;;;;6.27;64.11;102269.53;5086276;28;20084;-60
2023/01/31 07:30:42;;;;;;;13.23;4.95;;;;;;;6.29;63.86;102270.22;5084406;28;20140;-61
2023/01/31 07:33:10;;;;;;;13.05;5.82;;;;;;;6.27;63.77;102259.69;5083336;28;20175;-61
2023/01/31 07:35:38;;;;;;;14.25;5.18;;;;;;;6.28;63.65;102257.88;5076838;28;20040;-60
2023/01/31 07:38:06;;;;;;;22.23;5.03;;;;;;;6.28;63.79;102261.38;5077852;28;20165;-60
2023/01/31 07:40:36;;;;;;;13.20;4.45;;;;;;;6.28;63.83;102250.69;5079540;28;20128;-60
2023/01/31 07:43:04;;;;;;;12.20;4.97;;;;;;;6.29;64.00;102256.88;5085433;28;20060;-60
2023/01/31 07:45:31;;;;;;;18.73;5.30;;;;;;;6.29;63.33;102255.03;5078480;28;20049;-60
2023/01/31 07:48:01;;;;;;;14.65;5.10;;;;;;;6.33;63.81;102256.41;5080816;28;20048;-60
2023/01/31 07:50:29;;;;;;;13.38;4.47;;;;;;;6.30;63.69;102246.03;5085654;28;20083;-60
2023/01/31 07:52:57;;;;;;;12.43;3.92;;;;;;;6.30;63.93;102245.19;5074639;28;20049;-60
2023/01/31 07:55:25;;;;;;;14.57;4.20;;;;;;;6.28;63.79;102245.34;5065150;28;20095;-60
2023/01/31 07:57:53;;;;;;;14.45;4.93;;;;;;;6.30;63.98;102239.84;5084174;28;20241;-60
2023/01/31 08:03:32;;;;;;;14.52;4.63;;;;;;;6.27;64.38;102230.34;5072935;28;20056;-60
2023/01/31 08:06:02;;;;;;;11.48;5.30;;;;;;;6.29;64.20;102223.00;5069644;28;20091;-61
2023/01/31 08:08:30;;;;;;;14.18;4.22;;;;;;;6.23;64.27;102210.28;5082388;28;20056;-60
2023/01/31 08:10:58;;;;;;;16.33;4.50;;;;;;;6.29;64.20;102214.16;5083037;28;20059;-60
2023/01/31 08:13:26;;;;;;;11.35;4.18;;;;;;;6.31;64.03;102221.00;5085981;28;20068;-60
2023/01/31 08:15:54;;;;;;;14.95;5.32;;;;;;;6.30;64.46;102230.00;5077240;28;20048;-60
2023/01/31 08:18:23;;;;;;;13.10;4.20;;;;;;;6.31;63.97;102202.31;5084407;28;20059;-60
2023/01/31 08:20:51;;;;;;;15.18;4.22;;;;;;;6.30;64.17;102211.31;5065541;28;20083;-60
2023/01/31 08:23:18;;;;;;;14.70;4.63;;;;;;;6.29;64.38;102212.31;5066943;28;20084;-60
2023/01/31 08:25:46;;;;;;;21.83;4.93;;;;;;;6.29;64.41;102223.00;5074888;28;20052;-60
2023/01/31 08:28:15;;;;;;;15.05;4.13;;;;;;;6.30;64.35;102202.47;5085299;28;20056;-60
2023/01/31 08:30:43;;;;;;;11.50;3.92;;;;;;;6.30;64.14;102211.31;5083841;28;20044;-60
2023/01/31 08:33:24;;;;;;;15.98;4.72;;;;;;;6.31;64.67;102213.00;5077712;28;20037;-60
2023/01/31 08:35:52;;;;;;;17.88;4.68;;;;;;;6.34;64.11;102217.19;5074649;28;20136;-60
2023/01/31 08:38:20;;;;;;;13.02;4.85;;;;;;;6.34;64.39;102207.34;5069292;28;20048;-60
2023/01/31 08:40:49;;;;;;;12.45;4.55;;;;;;;6.35;64.65;102193.00;5079223;28;20059;-60
2023/01/31 08:43:16;;;;;;;14.65;5.05;;;;;;;6.36;64.22;102189.31;5084187;28;20066;-60
2023/01/31 08:45:45;;;;;;;13.27;4.07;;;;;;;6.36;64.35;102193.81;5079543;28;20075;-60
2023/01/31 08:48:13;;;;;;;16.20;3.75;;;;;;;6.36;64.78;102181.31;5083427;28;20057;-60
2023/01/31 08:50:42;;;;;;;15.30;5.25;;;;;;;6.38;64.76;102178.47;5083465;28;20049;-61
2023/01/31 08:53:10;;;;;;;17.88;4.43;;;;;;;6.39;64.90;102180.16;5084612;28;20048;-61
2023/01/31 08:55:38;;;;;;;13.48;4.57;;;;;;;6.39;64.45;102181.00;5084275;28;20127;-60
2023/01/31 08:58:06;;;;;;;13.18;4.05;;;;;;;6.38;64.64;102181.97;5073685;28;20079;-60
2023/01/31 09:00:34;;;;;;;14.82;4.95;;;;;;;6.41;64.33;102178.16;5081480;28;20058;-61
2023/01/31 09:03:02;;;;;;;13.85;4.03;;;;;;;6.41;65.12;102172.81;5083322;28;20132;-60
2023/01/31 09:05:31;;;;;;;12.55;4.07;;;;;;;6.41;64.90;102167.47;5082086;28;20488;-60
2023/01/31 09:08:01;;;;;;;14.73;4.22;;;;;;;6.42;64.78;102164.66;5071357;28;20044;-60
2023/01/31 09:10:29;;;;;;;17.80;4.72;;;;;;;6.45;65.31;102158.97;5070267;28;20131;-60
2023/01/31 09:12:59;;;;;;;22.55;4.40;;;;;;;6.47;64.74;102165.00;5084270;28;20108;-60
2023/01/31 09:15:26;;;;;;;17.42;4.03;;;;;;;6.44;65.24;102159.97;5079933;28;20044;-60
2023/01/31 09:17:55;;;;;;;15.80;5.50;;;;;;;6.46;65.21;102149.13;5073712;28;20045;-60
2023/01/31 09:20:23;;;;;;;15.30;4.15;;;;;;;6.46;65.36;102146.47;5076348;28;20040;-60
2023/01/31 09:22:50;;;;;;;16.75;4.85;;;;;;;6.49;65.20;102160.31;5073209;28;20080;-60
2023/01/31 09:25:19;;;;;;;13.18;5.20;;;;;;;6.49;65.60;102165.66;5079113;28;20130;-60
2023/01/31 09:28:07;;;;;;;19.75;4.72;;;;;;;6.50;65.09;102154.00;5075600;28;20154;-60
2023/01/31 09:30:35;;;;;;;16.25;3.92;;;;;;;6.52;65.35;102156.50;5082334;28;20044;-60
2023/01/31 09:33:03;;;;;;;10.77;3.25;;;;;;;6.53;65.30;102151.00;5075055;28;20049;-60
2023/01/31 09:35:30;;;;;;;18.10;4.32;;;;;;;6.55;65.18;102136.63;5078017;28;20108;-61
2023/01/31 09:37:58;;;;;;;13.00;4.53;;;;;;;6.53;64.68;102126.94;5070078;28;20059;-60
2023/01/31 09:40:31;;;;;;;10.65;3.72;;;;;;;6.56;64.89;102133.81;5077734;28;20048;-60
2023/01/31 09:43:03;;;;;;;13.30;3.72;;;;;;;6.55;65.29;102132.13;5083882;28;20068;-60
2023/01/31 09:45:34;;;;;;;9.57;3.35;;;;;;;6.53;65.59;102121.59;5075975;28;20074;-61
2023/01/31 09:48:02;;;;;;;13.90;3.55;;;;;;;6.53;64.99;102129.63;5082527;28;20044;-60
2023/01/31 09:50:34;;;;;;;8.63;3.67;;;;;;;6.55;65.50;102131.28;5080911;28;20139;-60
2023/01/31 09:53:03;;;;;;;14.52;4.18;;;;;;;6.56;65.36;102133.81;5083269;28;20401;-60
2023/01/31 09:55:41;;;;;;;16.50;4.00;;;;;;;6.57;65.14;102145.31;5075651;28;20052;-60
2023/01/31 09:58:18;;;;;;;13.43;4.45;;;;;;;6.59;65.07;102138.81;5082003;28;20104;-60
2023/01/31 10:00:51;;;;;;;11.85;3.35;;;;;;;6.61;65.46;102127.97;5078486;28;20484;-61
2023/01/31 10:03:42;;;;;;;10.07;3.35;;;;;;;6.61;65.17;102120.78;5082957;28;20109;-60
2023/01/31 10:06:19;;;;;;;16.52;4.00;;;;;;;6.60;65.79;102120.94;5080731;28;20049;-60
2023/01/31 10:08:52;;;;;;;15.35;4.15;;;;;;;6.59;65.67;102124.63;5074889;28;20052;-60
2023/01/31 10:11:30;;;;;;;12.07;3.60;;;;;;;6.60;65.69;102131.63;5070697;28;20079;-61
2023/01/31 10:14:05;;;;;;;13.90;3.88;;;;;;;6.60;66.17;102132.47;5083625;28;20072;-60
2023/01/31 10:16:38;;;;;;;14.32;3.67;;;;;;;6.63;65.95;102142.00;5076416;28;20081;-61
2023/01/31 10:19:10;;;;;;;15.20;4.05;;;;;;;6.62;66.12;102133.16;5064820;28;20059;-60
2023/01/31 10:21:41;;;;;;;9.55;3.70;;;;;;;6.63;65.72;102142.00;5080610;28;20055;-60
2023/01/31 10:24:17;;;;;;;11.93;3.42;;;;;;;6.63;66.14;102128.63;5083114;28;20064;-60
2023/01/31 10:26:49;;;;;;;16.75;3.38;;;;;;;6.65;66.21;102123.97;5080600;28;20052;-60
2023/01/31 10:29:27;;;;;;;13.93;4.05;;;;;;;6.66;66.40;102112.28;5082463;28;20079;-60
2023/01/31 10:32:00;;;;;;;14.27;5.35;;;;;;;6.66;65.98;102099.75;5076301;28;20078;-61
2023/01/31 10:34:31;;;;;;;16.92;3.80;;;;;;;6.66;66.41;102104.25;5082886;28;20045;-60
2023/01/31 10:37:05;;;;;;;25.77;4.57;;;;;;;6.65;66.49;102111.44;5068745;28;20079;-60
2023/01/31 10:39:36;;;;;;;13.20;4.13;;;;;;;6.69;66.72;102111.94;5080014;28;20045;-60
2023/01/31 10:42:18;;;;;;;12.80;3.65;;;;;;;6.70;66.50;102124.31;5065490;28;20084;-60
2023/01/31 10:44:52;;;;;;;14.95;4.05;;;;;;;6.70;66.67;102125.16;5077662;28;20084;-60
2023/01/31 10:47:22;;;;;;;14.43;3.97;;;;;;;6.66;66.62;102128.31;5072006;28;20098;-60
2023/01/31 10:49:50;;;;;;;13.35;5.20;;;;;;;6.71;66.67;102136.66;5067316;28;20132;-60
2023/01/31 10:52:36;;;;;;;15.90;3.63;;;;;;;6.73;67.29;102129.31;5085760;28;20048;-60
2023/01/31 10:55:18;;;;;;;12.27;3.90;;;;;;;6.70;66.92;102100.25;5086976;28;20048;-60
2023/01/31 10:57:47;;;;;;;14.75;4.60;;;;;;;6.75;67.37;102105.94;5086811;28;20072;-60
2023/01/31 11:00:22;;;;;;;11.88;3.80;;;;;;;6.74;66.88;102098.94;5085527;28;20060;-61
2023/01/31 11:02:50;;;;;;;14.32;4.30;;;;;;;6.77;66.85;102094.09;5085716;28;20153;-60
2023/01/31 11:05:21;;;;;;;12.52;4.20;;;;;;;6.80;67.37;102103.63;5085525;28;20080;-60
2023/01/31 11:07:49;;;;;;;18.23;4.90;;;;;;;6.79;67.72;102101.94;5086843;28;20044;-60
2023/01/31 11:10:23;;;;;;;19.67;4.43;;;;;;;6.82;67.90;102098.94;5086309;28;20048;-60
2023/01/31 11:12:58;;;;;;;16.17;4.90;;;;;;;6.82;67.76;102102.44;5073881;28;20045;-60
2023/01/31 11:15:28;;;;;;;15.32;4.97;;;;;;;6.81;67.54;102098.09;5085766;28;20044;-61
2023/01/31 11:17:59;;;;;;;14.15;5.03;;;;;;;6.83;68.10;102104.13;5083787;28;20048;-60
2023/01/31 11:20:30;;;;;;;14.57;6.07;;;;;;;6.86;67.90;102086.91;5083362;28;20131;-60
2023/01/31 11:23:00;;;;;;;14.73;4.75;;;;;;;6.86;67.74;102089.59;5076289;28;20104;-60
2023/01/31 11:25:31;;;;;;;17.50;5.82;;;;;;;6.85;68.26;102083.41;5086038;28;20123;-60
2023/01/31 11:28:03;;;;;;;13.95;4.50;;;;;;;6.77;67.72;102072.72;5076907;28;20068;-67
2023/01/31 11:30:33;;;;;;;18.08;6.22;;;;;;;6.91;67.73;102084.56;5076131;28;20063;-62
2023/01/31 11:33:02;;;;;;;13.80;5.55;;;;;;;7.01;67.35;102060.31;5078326;28;20071;-62
2023/01/31 11:35:31;;;;;;;10.95;4.40;;;;;;;7.25;66.97;102064.78;5066965;28;20045;-63
2023/01/31 11:38:01;;;;;;;12.45;4.97;;;;;;;7.43;66.75;102058.22;5084277;28;20062;-63
2023/01/31 11:40:31;;;;;;;11.38;4.28;;;;;;;7.63;65.45;102058.69;5084357;28;20135;-63
2023/01/31 11:43:03;;;;;;;15.30;4.13;;;;;;;7.84;65.35;102066.94;5086014;28;20493;-63
2023/01/31 11:45:31;;;;;;;15.48;5.97;;;;;;;8.03;64.06;102056.81;5084757;28;20102;-63
2023/01/31 11:48:07;;;;;;;15.13;5.55;;;;;;;8.17;64.51;102058.75;5077963;28;20171;-62
2023/01/31 11:50:38;;;;;;;13.20;5.15;;;;;;;8.28;63.96;102058.34;5070209;28;20095;-63
2023/01/31 11:53:16;;;;;;;19.35;5.50;;;;;;;8.40;63.91;102056.97;4726100;28;10000460;-63